createdAt,value
2022-10-06T00:02:08.292Z,100504.66
2022-10-06T00:17:11.524Z,100503.06
2022-10-06T00:32:14.467Z,100501.05
2022-10-06T00:47:19.721Z,100500.73
2022-10-06T01:02:34.526Z,100502.35
2022-10-06T01:17:43.310Z,100500.53
2022-10-06T01:32:46.353Z,100505.06
2022-10-06T01:47:49.470Z,100509.52
2022-10-06T02:02:52.999Z,100513.23
2022-10-06T02:17:56.248Z,100510.61
2022-10-06T02:33:03.021Z,100514.02
2022-10-06T02:48:06.033Z,100521.80
2022-10-06T03:03:09.725Z,100527.31
2022-10-06T03:18:13.229Z,100531.11
2022-10-06T03:33:16.280Z,100533.70
2022-10-06T03:48:19.464Z,100547.64
2022-10-06T04:03:22.888Z,100561.63
2022-10-06T04:18:26.628Z,100578.16
2022-10-06T04:33:32.710Z,100594.41
2022-10-06T04:48:35.980Z,100604.01
2022-10-06T05:03:39.641Z,100611.91
2022-10-06T05:18:43.734Z,100628.80
2022-10-06T05:33:48.240Z,100645.38
2022-10-06T05:48:55.746Z,100650.15
2022-10-06T06:04:03.458Z,100673.30
2022-10-06T06:19:13.504Z,100702.90
2022-10-06T06:34:18.792Z,100714.36
2022-10-06T06:49:23.047Z,100725.46
2022-10-06T07:04:33.034Z,100757.61
2022-10-06T07:19:51.403Z,100781.20
2022-10-06T07:34:55.794Z,100807.14
2022-10-06T07:49:59.654Z,100814.86
2022-10-06T08:05:04.523Z,100809.71
2022-10-06T08:20:11.012Z,100845.33
2022-10-06T08:35:15.071Z,100890.94
2022-10-06T08:50:21.605Z,100904.14
2022-10-06T09:05:30.121Z,100933.42
2022-10-06T09:20:38.288Z,100961.36
2022-10-06T09:36:09.286Z,100965.38
2022-10-06T09:51:17.948Z,100986.63
2022-10-06T10:06:28.338Z,101011.92
2022-10-06T10:21:34.077Z,101045.18
2022-10-06T10:36:51.542Z,101058.66
2022-10-06T10:52:03.813Z,101083.89
2022-10-06T11:07:21.449Z,101085.30
2022-10-06T11:22:41.889Z,101099.61
2022-10-06T11:37:56.630Z,101121.27
2022-10-06T11:53:00.268Z,101133.45
2022-10-06T12:08:04.467Z,101148.15
2022-10-06T12:23:22.799Z,101180.05
2022-10-06T12:38:33.346Z,101203.44
2022-10-06T12:54:11.492Z,101204.46
2022-10-06T13:09:14.748Z,101220.14
2022-10-06T13:24:20.831Z,101232.65
2022-10-06T13:39:26.397Z,101253.49
2022-10-06T13:54:38.348Z,101265.27
2022-10-06T14:09:43.805Z,101279.85
2022-10-06T14:24:51.449Z,101296.16
2022-10-06T14:39:56.357Z,101314.76
2022-10-06T14:55:00.313Z,101330.89
2022-10-06T15:10:06.356Z,101340.51
2022-10-06T15:25:30.477Z,101365.64
2022-10-06T15:40:34.098Z,101380.92
2022-10-06T15:55:39.087Z,101396.20
2022-10-06T16:10:43.300Z,101421.80
2022-10-06T16:25:46.679Z,101445.48
2022-10-06T16:40:57.424Z,101468.00
2022-10-06T16:56:00.957Z,101495.57
2022-10-06T17:11:18.766Z,101522.63
2022-10-06T17:26:24.659Z,101536.14
2022-10-06T17:41:34.283Z,101543.70
2022-10-06T17:56:39.034Z,101558.02
2022-10-06T18:11:44.556Z,101562.77
2022-10-06T18:26:49.882Z,101569.55
2022-10-06T18:42:26.111Z,101589.89
2022-10-06T18:57:29.876Z,101603.58
2022-10-06T19:12:33.553Z,101613.49
2022-10-06T19:27:38.801Z,101635.58
2022-10-06T19:42:48.598Z,101646.30
2022-10-06T19:57:51.902Z,101660.58
2022-10-06T20:12:55.911Z,101670.16
2022-10-06T20:27:59.344Z,101683.09
2022-10-06T20:43:02.995Z,101682.89
2022-10-06T20:58:05.977Z,101706.15
2022-10-06T21:13:09.945Z,101712.54
2022-10-06T21:28:14.054Z,101712.94
2022-10-06T21:43:17.102Z,101713.40
2022-10-06T21:58:20.031Z,101717.81
2022-10-06T22:13:23.373Z,101723.17
2022-10-06T22:28:26.967Z,101717.87
2022-10-06T22:43:30.796Z,101715.27
2022-10-06T22:58:34.159Z,101712.27
2022-10-06T23:13:37.622Z,101714.35
2022-10-06T23:28:41.391Z,101720.59
2022-10-06T23:43:44.520Z,101725.60
2022-10-06T23:58:48.159Z,101726.14
